createdAt,value
2022-10-02T00:00:18.298Z,99.99
2022-10-02T00:01:18.773Z,99.99
2022-10-02T00:02:19.027Z,99.99
2022-10-02T00:03:19.345Z,99.99
2022-10-02T00:04:19.782Z,99.99
2022-10-02T00:05:20.070Z,99.99
2022-10-02T00:06:20.468Z,99.99
2022-10-02T00:07:20.792Z,99.99
2022-10-02T00:08:24.245Z,99.99
2022-10-02T00:09:21.504Z,99.99
2022-10-02T00:10:21.859Z,99.99
2022-10-02T00:11:22.247Z,99.99
2022-10-02T00:12:22.572Z,99.99
2022-10-02T00:13:22.918Z,99.99
2022-10-02T00:14:23.291Z,99.99
2022-10-02T00:15:23.645Z,99.99
2022-10-02T00:16:24.080Z,99.99
2022-10-02T00:17:24.383Z,99.99
2022-10-02T00:18:24.738Z,99.99
2022-10-02T00:19:25.090Z,99.99
2022-10-02T00:20:25.434Z,99.99
2022-10-02T00:21:25.838Z,99.99
2022-10-02T00:22:26.150Z,99.99
2022-10-02T00:23:26.570Z,99.99
2022-10-02T00:24:26.890Z,99.99
2022-10-02T00:25:27.246Z,99.99
2022-10-02T00:26:27.623Z,99.99
2022-10-02T00:27:27.943Z,99.99
2022-10-02T00:28:28.324Z,99.99
2022-10-02T00:29:28.676Z,99.99
2022-10-02T00:30:29.036Z,99.99
2022-10-02T00:31:29.498Z,99.99
2022-10-02T00:32:29.744Z,99.99
2022-10-02T00:33:30.118Z,99.99
2022-10-02T00:34:30.470Z,99.99
2022-10-02T00:35:30.845Z,99.99
2022-10-02T00:36:31.235Z,99.99
2022-10-02T00:37:31.552Z,99.99
2022-10-02T00:38:31.906Z,99.99
2022-10-02T00:39:32.280Z,99.99
2022-10-02T00:40:32.637Z,99.99
2022-10-02T00:41:33.702Z,99.99
2022-10-02T00:42:33.353Z,99.99
2022-10-02T00:43:33.718Z,99.99
2022-10-02T00:44:34.071Z,99.99
2022-10-02T00:45:34.505Z,99.99
2022-10-02T00:46:35.078Z,99.99
2022-10-02T00:47:35.172Z,99.99
2022-10-02T00:48:35.540Z,99.99
2022-10-02T00:49:35.888Z,99.99
2022-10-02T00:50:36.275Z,99.99
2022-10-02T00:51:36.656Z,99.99
2022-10-02T00:52:37.007Z,99.99
2022-10-02T00:53:37.367Z,99.99
2022-10-02T00:54:37.728Z,99.99
2022-10-02T00:55:38.090Z,99.99
2022-10-02T00:56:38.800Z,99.99
2022-10-02T00:57:38.811Z,99.99
2022-10-02T00:58:39.184Z,99.99
2022-10-02T00:59:39.535Z,99.99
2022-10-02T01:00:39.925Z,99.99
2022-10-02T01:01:40.531Z,99.99
2022-10-02T01:02:40.622Z,99.99
2022-10-02T01:03:40.989Z,99.99
2022-10-02T01:04:41.380Z,99.99
2022-10-02T01:05:41.693Z,99.99
2022-10-02T01:06:42.061Z,99.99
2022-10-02T01:07:42.422Z,99.99
2022-10-02T01:08:42.780Z,99.99
2022-10-02T01:09:43.147Z,99.99
2022-10-02T01:10:43.499Z,99.99
2022-10-02T01:11:43.882Z,99.99
2022-10-02T01:12:44.232Z,99.99
2022-10-02T01:13:44.592Z,99.99
2022-10-02T01:14:44.949Z,99.99
2022-10-02T01:15:45.312Z,99.99
2022-10-02T01:16:45.791Z,99.99
2022-10-02T01:17:46.049Z,99.99
2022-10-02T01:18:46.411Z,99.99
2022-10-02T01:19:46.816Z,99.99
2022-10-02T01:20:47.125Z,99.99
2022-10-02T01:21:47.491Z,99.99
2022-10-02T01:22:47.834Z,99.99
2022-10-02T01:23:48.204Z,99.99
2022-10-02T01:24:48.548Z,99.99
2022-10-02T01:25:48.901Z,99.99
2022-10-02T01:26:49.313Z,99.99
2022-10-02T01:27:49.689Z,99.99
2022-10-02T01:28:50.000Z,99.99
2022-10-02T01:29:50.359Z,99.99
2022-10-02T01:30:50.750Z,99.99
2022-10-02T01:31:51.163Z,99.99
2022-10-02T01:32:51.493Z,99.99
2022-10-02T01:33:51.828Z,99.99
2022-10-02T01:34:52.191Z,99.99
2022-10-02T01:35:52.548Z,99.99
2022-10-02T01:36:52.910Z,99.99
2022-10-02T01:37:53.274Z,99.99
2022-10-02T01:38:53.644Z,99.99
2022-10-02T01:39:53.996Z,99.99
2022-10-02T01:40:54.358Z,99.99
2022-10-02T01:41:54.767Z,99.99
2022-10-02T01:42:55.072Z,99.99
2022-10-02T01:43:55.435Z,99.99
2022-10-02T01:44:55.787Z,99.99
2022-10-02T01:45:56.239Z,99.99
2022-10-02T01:46:56.512Z,99.99
2022-10-02T01:47:56.969Z,99.99
2022-10-02T01:48:57.232Z,99.99
2022-10-02T01:49:57.608Z,99.99
2022-10-02T01:50:57.946Z,99.99
2022-10-02T01:51:58.320Z,99.99
2022-10-02T01:52:58.680Z,99.99
2022-10-02T01:53:59.031Z,99.99
2022-10-02T01:54:59.390Z,99.99
2022-10-02T01:55:59.737Z,99.99
2022-10-02T01:57:00.139Z,99.99
2022-10-02T01:58:00.505Z,99.99
2022-10-02T01:59:00.871Z,99.99
2022-10-02T02:00:01.225Z,99.99
2022-10-02T02:01:01.645Z,99.99
2022-10-02T02:02:02.155Z,99.99
2022-10-02T02:03:02.315Z,99.99
2022-10-02T02:04:02.700Z,99.99
2022-10-02T02:05:03.049Z,99.99
2022-10-02T02:06:03.410Z,99.99
2022-10-02T02:07:03.801Z,99.99
2022-10-02T02:08:04.164Z,99.99
2022-10-02T02:09:04.474Z,99.99
2022-10-02T02:10:04.844Z,99.99
2022-10-02T02:11:05.201Z,99.99
2022-10-02T02:12:05.585Z,99.99
2022-10-02T02:13:05.939Z,99.99
2022-10-02T02:14:06.289Z,99.99
2022-10-02T02:15:06.687Z,99.99
2022-10-02T02:16:07.047Z,99.99
2022-10-02T02:17:07.409Z,99.99
2022-10-02T02:18:07.755Z,99.99
2022-10-02T02:19:08.141Z,99.99
2022-10-02T02:20:08.497Z,99.99
2022-10-02T02:21:08.873Z,99.99
2022-10-02T02:22:09.241Z,99.99
2022-10-02T02:23:09.610Z,99.99
2022-10-02T02:24:09.983Z,99.99
2022-10-02T02:25:10.351Z,99.99
2022-10-02T02:26:10.780Z,99.99
2022-10-02T02:27:11.075Z,99.99
2022-10-02T02:28:11.473Z,99.99
2022-10-02T02:29:11.794Z,99.99
2022-10-02T02:30:12.230Z,99.99
2022-10-02T02:31:12.581Z,99.99
2022-10-02T02:32:12.934Z,99.99
2022-10-02T02:33:13.286Z,99.99
2022-10-02T02:34:13.644Z,99.99
2022-10-02T02:35:13.998Z,99.99
2022-10-02T02:36:14.379Z,99.99
2022-10-02T02:37:14.763Z,99.99
2022-10-02T02:38:15.101Z,99.99
2022-10-02T02:39:15.477Z,99.99
2022-10-02T02:40:15.826Z,99.99
2022-10-02T02:41:16.211Z,99.99
2022-10-02T02:42:17.909Z,99.99
2022-10-02T02:43:16.933Z,99.99
2022-10-02T02:44:17.311Z,99.99
2022-10-02T02:45:17.651Z,99.99
2022-10-02T02:46:18.000Z,99.99
2022-10-02T02:47:18.389Z,99.99
2022-10-02T02:48:18.742Z,99.99
2022-10-02T02:49:19.100Z,99.99
2022-10-02T02:50:19.444Z,99.99
2022-10-02T02:51:19.808Z,99.99
2022-10-02T02:52:20.183Z,99.99
2022-10-02T02:53:20.573Z,99.99
2022-10-02T02:54:20.909Z,99.99
2022-10-02T02:55:21.286Z,99.99
2022-10-02T02:56:21.646Z,99.99
2022-10-02T02:57:22.043Z,99.99
2022-10-02T02:58:22.342Z,99.99
2022-10-02T02:59:22.750Z,99.99
2022-10-02T03:00:23.117Z,99.99
2022-10-02T03:01:23.499Z,99.99
2022-10-02T03:02:23.966Z,99.99
2022-10-02T03:03:24.220Z,99.99
2022-10-02T03:04:24.608Z,99.99
2022-10-02T03:05:24.923Z,99.99
2022-10-02T03:06:25.304Z,99.99
2022-10-02T03:07:25.706Z,99.99
2022-10-02T03:08:26.023Z,99.99
2022-10-02T03:09:26.398Z,99.99
2022-10-02T03:10:26.750Z,99.99
2022-10-02T03:11:27.096Z,99.99
2022-10-02T03:12:27.473Z,99.99
2022-10-02T03:13:27.821Z,99.99
2022-10-02T03:14:28.169Z,99.99
2022-10-02T03:15:28.711Z,99.99
2022-10-02T03:16:28.892Z,99.99
2022-10-02T03:17:29.319Z,99.99
2022-10-02T03:18:29.678Z,99.99
2022-10-02T03:19:30.006Z,99.99
2022-10-02T03:20:30.367Z,99.99
2022-10-02T03:21:30.743Z,99.99
2022-10-02T03:22:31.127Z,99.99
2022-10-02T03:23:31.477Z,99.99
2022-10-02T03:24:31.860Z,99.99
2022-10-02T03:25:32.208Z,99.99
2022-10-02T03:26:32.726Z,99.99
2022-10-02T03:27:35.163Z,99.99
2022-10-02T03:28:54.387Z,99.99
2022-10-02T03:29:33.674Z,99.99
2022-10-02T03:30:33.986Z,99.99
2022-10-02T03:31:34.446Z,99.99
2022-10-02T03:32:34.745Z,99.99
2022-10-02T03:33:35.104Z,99.99
2022-10-02T03:34:35.459Z,99.99
2022-10-02T03:35:35.817Z,99.99
2022-10-02T03:36:36.381Z,99.99
2022-10-02T03:37:36.572Z,99.99
2022-10-02T03:38:36.921Z,99.99
2022-10-02T03:39:37.282Z,99.99
2022-10-02T03:40:37.644Z,99.99
2022-10-02T03:41:38.004Z,99.99
2022-10-02T03:42:38.386Z,99.99
2022-10-02T03:43:38.745Z,99.99
2022-10-02T03:44:39.114Z,99.99
2022-10-02T03:45:50.959Z,99.99
2022-10-02T03:46:40.212Z,99.99
2022-10-02T03:47:40.193Z,99.99
2022-10-02T03:48:40.555Z,99.99
2022-10-02T03:49:40.912Z,99.99
2022-10-02T03:50:41.248Z,99.99
2022-10-02T03:51:41.632Z,99.99
2022-10-02T03:52:41.994Z,99.99
2022-10-02T03:53:42.354Z,99.99
2022-10-02T03:54:42.709Z,99.99
2022-10-02T03:55:43.066Z,99.99
2022-10-02T03:56:43.418Z,99.99
2022-10-02T03:57:43.827Z,99.99
2022-10-02T03:58:44.182Z,99.99
2022-10-02T03:59:44.560Z,99.99
2022-10-02T04:00:44.931Z,99.99
2022-10-02T04:01:48.946Z,99.99
2022-10-02T04:02:45.689Z,99.99
2022-10-02T04:03:45.997Z,99.99
2022-10-02T04:04:46.354Z,99.99
2022-10-02T04:05:46.705Z,99.99
2022-10-02T04:06:47.067Z,99.99
2022-10-02T04:07:52.425Z,99.99
2022-10-02T04:08:47.793Z,99.99
2022-10-02T04:09:48.157Z,99.99
2022-10-02T04:10:48.509Z,99.99
2022-10-02T04:11:48.871Z,99.99
2022-10-02T04:12:49.245Z,99.99
2022-10-02T04:13:49.607Z,99.99
2022-10-02T04:14:49.975Z,99.99
2022-10-02T04:15:50.377Z,99.99
2022-10-02T04:16:50.730Z,99.99
2022-10-02T04:17:52.939Z,99.99
2022-10-02T04:18:51.428Z,99.99
2022-10-02T04:19:51.812Z,99.99
2022-10-02T04:20:52.173Z,99.99
2022-10-02T04:21:52.533Z,99.99
2022-10-02T04:22:52.912Z,99.99
2022-10-02T04:23:53.251Z,99.99
2022-10-02T04:24:53.599Z,99.99
2022-10-02T04:25:53.954Z,99.99
2022-10-02T04:26:54.344Z,99.99
2022-10-02T04:27:54.814Z,99.99
2022-10-02T04:28:55.072Z,99.99
2022-10-02T04:29:55.440Z,99.99
2022-10-02T04:30:55.803Z,99.99
2022-10-02T04:31:56.226Z,99.99
2022-10-02T04:32:56.530Z,99.99
2022-10-02T04:33:56.933Z,99.99
2022-10-02T04:34:57.322Z,99.99
2022-10-02T04:35:57.617Z,99.99
2022-10-02T04:36:57.980Z,99.99
2022-10-02T04:37:58.428Z,99.99
2022-10-02T04:38:58.696Z,99.99
2022-10-02T04:39:59.041Z,99.99
2022-10-02T04:40:59.399Z,99.99
2022-10-02T04:41:59.789Z,99.99
2022-10-02T04:43:00.164Z,99.99
2022-10-02T04:44:00.536Z,99.99
2022-10-02T04:45:00.891Z,99.99
2022-10-02T04:46:01.370Z,99.99
2022-10-02T04:47:01.648Z,99.99
2022-10-02T04:48:02.019Z,99.99
2022-10-02T04:49:02.109Z,99.99
2022-10-02T04:50:02.298Z,99.99
2022-10-02T04:51:02.557Z,99.99
2022-10-02T04:52:02.944Z,99.99
2022-10-02T04:53:03.324Z,99.99
2022-10-02T04:54:03.423Z,99.99
2022-10-02T04:55:03.587Z,99.99
2022-10-02T04:56:03.923Z,99.99
2022-10-02T04:57:04.098Z,99.99
2022-10-02T04:58:04.272Z,99.99
2022-10-02T04:59:04.409Z,99.99
2022-10-02T05:00:04.606Z,99.99
2022-10-02T05:01:04.909Z,99.99
2022-10-02T05:02:05.115Z,99.99
2022-10-02T05:03:05.407Z,99.99
2022-10-02T05:04:05.619Z,99.99
2022-10-02T05:05:05.810Z,99.99
2022-10-02T05:06:05.981Z,99.99
2022-10-02T05:07:06.142Z,99.99
2022-10-02T05:08:06.445Z,99.99
2022-10-02T05:09:06.617Z,99.99
2022-10-02T05:10:06.811Z,99.99
2022-10-02T05:11:06.967Z,99.99
2022-10-02T05:12:07.156Z,99.99
2022-10-02T05:13:07.486Z,99.99
2022-10-02T05:14:07.616Z,99.99
2022-10-02T05:15:07.906Z,99.99
2022-10-02T05:16:08.125Z,99.99
2022-10-02T05:17:08.251Z,99.99
2022-10-02T05:18:08.621Z,99.99
2022-10-02T05:19:08.870Z,99.99
2022-10-02T05:20:09.151Z,99.99
2022-10-02T05:21:09.426Z,99.99
2022-10-02T05:22:09.724Z,99.99
2022-10-02T05:23:09.924Z,99.99
2022-10-02T05:24:10.079Z,99.99
2022-10-02T05:25:10.242Z,99.99
2022-10-02T05:26:14.217Z,99.99
2022-10-02T05:27:10.621Z,99.99
2022-10-02T05:28:10.881Z,99.99
2022-10-02T05:29:10.974Z,99.99
2022-10-02T05:30:11.171Z,99.99
2022-10-02T05:31:11.395Z,99.99
2022-10-02T05:32:11.552Z,99.99
2022-10-02T05:33:11.769Z,99.99
2022-10-02T05:34:11.894Z,99.99
2022-10-02T05:35:12.065Z,99.99
2022-10-02T05:36:12.263Z,99.99
2022-10-02T05:37:12.468Z,99.99
2022-10-02T05:38:13.625Z,99.99
2022-10-02T05:39:12.891Z,99.99
2022-10-02T05:40:13.083Z,99.99
2022-10-02T05:41:13.243Z,99.99
2022-10-02T05:42:13.415Z,99.99
2022-10-02T05:43:13.584Z,99.99
2022-10-02T05:44:13.746Z,99.99
2022-10-02T05:45:13.923Z,99.99
2022-10-02T05:46:14.136Z,99.99
2022-10-02T05:47:14.247Z,99.99
2022-10-02T05:48:14.422Z,99.99
2022-10-02T05:49:14.630Z,99.99
2022-10-02T05:50:14.748Z,99.99
2022-10-02T05:51:14.929Z,99.99
2022-10-02T05:52:15.098Z,99.99
2022-10-02T05:53:15.311Z,99.99
2022-10-02T05:54:15.453Z,99.99
2022-10-02T05:55:15.742Z,99.99
2022-10-02T05:56:16.025Z,99.99
2022-10-02T05:57:16.209Z,99.99
2022-10-02T05:58:16.571Z,99.99
2022-10-02T05:59:16.676Z,99.99
2022-10-02T06:00:16.947Z,99.99
2022-10-02T06:01:17.285Z,99.99
2022-10-02T06:02:17.685Z,99.99
2022-10-02T06:03:17.785Z,99.99
2022-10-02T06:04:18.072Z,99.99
2022-10-02T06:05:18.319Z,99.99
2022-10-02T06:06:18.623Z,99.99
2022-10-02T06:07:18.778Z,99.99
2022-10-02T06:08:18.966Z,99.99
2022-10-02T06:09:20.459Z,99.99
2022-10-02T06:10:19.282Z,99.99
2022-10-02T06:11:19.488Z,99.99
2022-10-02T06:12:19.646Z,99.99
2022-10-02T06:13:19.851Z,99.99
2022-10-02T06:14:20.015Z,99.99
2022-10-02T06:15:20.189Z,99.99
2022-10-02T06:16:20.495Z,99.99
2022-10-02T06:17:20.541Z,99.99
2022-10-02T06:18:20.744Z,99.99
2022-10-02T06:19:20.946Z,99.99
2022-10-02T06:20:21.091Z,99.99
2022-10-02T06:21:21.276Z,99.99
2022-10-02T06:22:21.476Z,99.99
2022-10-02T06:23:21.656Z,99.99
2022-10-02T06:24:21.812Z,99.99
2022-10-02T06:25:22.005Z,99.99
2022-10-02T06:26:22.185Z,99.99
2022-10-02T06:27:22.371Z,99.99
2022-10-02T06:28:22.646Z,99.99
2022-10-02T06:29:27.002Z,99.99
2022-10-02T06:30:22.917Z,99.99
2022-10-02T06:31:23.113Z,99.99
2022-10-02T06:32:23.272Z,99.99
2022-10-02T06:33:23.480Z,99.99
2022-10-02T06:34:23.626Z,99.99
2022-10-02T06:35:23.818Z,99.99
2022-10-02T06:36:24.006Z,99.99
2022-10-02T06:37:24.201Z,99.99
2022-10-02T06:38:24.447Z,99.99
2022-10-02T06:39:24.589Z,99.99
2022-10-02T06:40:24.833Z,99.99
2022-10-02T06:41:25.003Z,99.99
2022-10-02T06:42:25.148Z,99.99
2022-10-02T06:43:25.339Z,99.99
2022-10-02T06:44:25.506Z,99.99
2022-10-02T06:45:25.775Z,99.99
2022-10-02T06:46:25.908Z,99.99
2022-10-02T06:47:26.102Z,99.99
2022-10-02T06:48:26.301Z,99.99
2022-10-02T06:49:26.484Z,99.99
2022-10-02T06:50:26.720Z,99.99
2022-10-02T06:51:26.874Z,99.99
2022-10-02T06:52:27.068Z,99.99
2022-10-02T06:53:27.273Z,99.99
2022-10-02T06:54:27.467Z,99.99
2022-10-02T06:55:27.674Z,99.99
2022-10-02T06:56:27.828Z,99.99
2022-10-02T06:57:28.020Z,99.99
2022-10-02T06:58:28.234Z,99.99
2022-10-02T06:59:28.383Z,99.99
2022-10-02T07:00:28.579Z,99.99
2022-10-02T07:01:28.764Z,99.99
2022-10-02T07:02:28.990Z,99.99
2022-10-02T07:03:29.208Z,99.99
2022-10-02T07:04:29.364Z,99.99
2022-10-02T07:05:29.548Z,99.99
2022-10-02T07:06:29.739Z,99.99
2022-10-02T07:07:29.890Z,99.99
2022-10-02T07:08:30.096Z,99.99
2022-10-02T07:09:30.278Z,99.99
2022-10-02T07:10:30.482Z,99.99
2022-10-02T07:11:30.670Z,99.99
2022-10-02T07:12:30.856Z,99.99
2022-10-02T07:13:31.043Z,99.99
2022-10-02T07:14:31.326Z,99.99
2022-10-02T07:15:31.433Z,99.99
2022-10-02T07:16:31.675Z,99.99
2022-10-02T07:17:31.804Z,99.99
2022-10-02T07:18:32.009Z,99.99
2022-10-02T07:19:32.198Z,99.99
2022-10-02T07:20:32.385Z,99.99
2022-10-02T07:21:32.585Z,99.99
2022-10-02T07:22:44.401Z,99.99
2022-10-02T07:23:32.989Z,99.99
2022-10-02T07:24:33.137Z,99.99
2022-10-02T07:25:33.333Z,99.99
2022-10-02T07:26:33.809Z,99.99
2022-10-02T07:27:33.766Z,99.99
2022-10-02T07:28:34.032Z,99.99
2022-10-02T07:29:34.108Z,99.99
2022-10-02T07:30:34.298Z,99.99
2022-10-02T07:31:34.501Z,99.99
2022-10-02T07:32:34.660Z,99.99
2022-10-02T07:33:34.886Z,99.99
2022-10-02T07:34:35.047Z,99.99
2022-10-02T07:35:35.230Z,99.99
2022-10-02T07:36:35.767Z,99.99
2022-10-02T07:37:35.597Z,99.99
2022-10-02T07:38:35.805Z,99.99
2022-10-02T07:39:35.955Z,99.99
2022-10-02T07:40:36.139Z,99.99
2022-10-02T07:41:36.320Z,99.99
2022-10-02T07:42:36.571Z,99.99
2022-10-02T07:43:36.733Z,99.99
2022-10-02T07:44:36.879Z,99.99
2022-10-02T07:45:37.090Z,99.99
2022-10-02T07:46:37.677Z,99.99
2022-10-02T07:47:37.467Z,99.99
2022-10-02T07:48:37.668Z,99.99
2022-10-02T07:49:37.807Z,99.99
2022-10-02T07:50:37.989Z,99.99
2022-10-02T07:51:38.181Z,99.99
2022-10-02T07:52:38.375Z,99.99
2022-10-02T07:53:38.582Z,99.99
2022-10-02T07:54:38.727Z,99.99
2022-10-02T07:55:39.000Z,99.99
2022-10-02T07:56:39.372Z,99.99
2022-10-02T07:57:39.316Z,99.99
2022-10-02T07:58:39.532Z,99.99
2022-10-02T07:59:39.718Z,99.99
2022-10-02T08:00:39.903Z,99.99
2022-10-02T08:01:40.094Z,99.99
2022-10-02T08:02:40.273Z,99.99
2022-10-02T08:03:40.632Z,99.99
2022-10-02T08:04:40.691Z,99.99
2022-10-02T08:05:40.869Z,99.99
2022-10-02T08:06:41.063Z,99.99
2022-10-02T08:07:41.261Z,99.99
2022-10-02T08:08:41.462Z,99.99
2022-10-02T08:09:41.657Z,99.99
2022-10-02T08:10:41.850Z,99.99
2022-10-02T08:11:44.116Z,99.99
2022-10-02T08:12:42.213Z,99.99
2022-10-02T08:13:42.404Z,99.99
2022-10-02T08:14:42.594Z,99.99
2022-10-02T08:15:42.747Z,99.99
2022-10-02T08:16:42.963Z,99.99
2022-10-02T08:17:43.130Z,99.99
2022-10-02T08:18:43.296Z,99.99
2022-10-02T08:19:43.444Z,99.99
2022-10-02T08:20:43.634Z,99.99
2022-10-02T08:21:43.810Z,99.99
2022-10-02T08:22:44.000Z,99.99
2022-10-02T08:23:44.213Z,99.99
2022-10-02T08:24:44.366Z,99.99
2022-10-02T08:25:44.579Z,99.99
2022-10-02T08:26:44.728Z,99.99
2022-10-02T08:27:44.902Z,99.99
2022-10-02T08:28:45.114Z,99.99
2022-10-02T08:29:45.272Z,99.99
2022-10-02T08:30:45.456Z,99.99
2022-10-02T08:31:45.701Z,99.99
2022-10-02T08:32:45.825Z,99.99
2022-10-02T08:33:46.057Z,99.99
2022-10-02T08:34:46.219Z,99.99
2022-10-02T08:35:46.423Z,99.99
2022-10-02T08:36:46.608Z,99.99
2022-10-02T08:37:46.796Z,99.99
2022-10-02T08:38:49.403Z,99.99
2022-10-02T08:39:47.196Z,99.99
2022-10-02T08:40:47.401Z,99.99
2022-10-02T08:41:47.607Z,99.99
2022-10-02T08:42:47.802Z,99.99
2022-10-02T08:43:48.017Z,99.99
2022-10-02T08:44:48.209Z,99.99
2022-10-02T08:45:48.393Z,99.99
2022-10-02T08:46:48.547Z,99.99
2022-10-02T08:47:48.751Z,99.99
2022-10-02T08:48:48.973Z,99.99
2022-10-02T08:49:49.223Z,99.99
2022-10-02T08:50:49.317Z,99.99
2022-10-02T08:51:49.506Z,99.99
2022-10-02T08:52:49.692Z,99.99
2022-10-02T08:53:49.904Z,99.99
2022-10-02T08:54:50.067Z,99.99
2022-10-02T08:55:50.294Z,99.99
2022-10-02T08:56:50.437Z,99.99
2022-10-02T08:57:50.611Z,99.99
2022-10-02T08:58:50.792Z,99.99
2022-10-02T08:59:50.981Z,99.99
2022-10-02T09:00:51.240Z,99.99
2022-10-02T09:01:52.772Z,99.99
2022-10-02T09:02:51.585Z,99.99
2022-10-02T09:03:51.822Z,99.99
2022-10-02T09:04:51.971Z,99.99
2022-10-02T09:05:52.168Z,99.99
2022-10-02T09:06:52.361Z,99.99
2022-10-02T09:07:52.549Z,99.99
2022-10-02T09:08:52.751Z,99.99
2022-10-02T09:09:52.951Z,99.99
2022-10-02T09:10:53.140Z,99.99
2022-10-02T09:11:53.347Z,99.99
2022-10-02T09:12:53.552Z,99.99
2022-10-02T09:13:53.754Z,99.99
2022-10-02T09:14:58.637Z,99.99
2022-10-02T09:15:54.080Z,99.99
2022-10-02T09:16:54.318Z,99.99
2022-10-02T09:17:54.441Z,99.99
2022-10-02T09:18:54.665Z,99.99
2022-10-02T09:19:54.832Z,99.99
2022-10-02T09:20:55.020Z,99.99
2022-10-02T09:21:55.247Z,99.99
2022-10-02T09:22:55.402Z,99.99
2022-10-02T09:23:55.610Z,99.99
2022-10-02T09:24:55.791Z,99.99
2022-10-02T09:25:55.970Z,99.99
2022-10-02T09:26:56.152Z,99.99
2022-10-02T09:27:56.380Z,99.99
2022-10-02T09:28:56.558Z,99.99
2022-10-02T09:29:56.744Z,99.99
2022-10-02T09:30:56.941Z,99.58
2022-10-02T09:31:57.169Z,99.78
2022-10-02T09:32:57.330Z,99.99
2022-10-02T09:33:57.553Z,99.99
2022-10-02T09:34:57.734Z,99.33
2022-10-02T09:35:57.920Z,98.82
2022-10-02T09:36:58.125Z,98.16
2022-10-02T09:37:58.336Z,99.99
2022-10-02T09:38:58.542Z,97.56
2022-10-02T09:39:58.726Z,98.62
2022-10-02T09:40:58.915Z,99.94
2022-10-02T09:41:59.107Z,99.68
2022-10-02T09:42:59.293Z,99.99
2022-10-02T09:43:59.515Z,99.27
2022-10-02T09:45:01.726Z,99.68
2022-10-02T09:45:59.922Z,99.99
2022-10-02T09:47:00.062Z,99.99
2022-10-02T09:48:00.254Z,99.99
2022-10-02T09:49:00.471Z,99.99
2022-10-02T09:50:00.642Z,99.99
2022-10-02T09:51:00.837Z,99.99
2022-10-02T09:52:01.032Z,99.99
2022-10-02T09:53:01.211Z,99.99
2022-10-02T09:54:01.412Z,99.99
2022-10-02T09:55:01.599Z,99.99
2022-10-02T09:56:01.797Z,99.99
2022-10-02T09:57:01.984Z,99.99
2022-10-02T09:58:02.170Z,99.99
2022-10-02T09:59:02.359Z,99.99
2022-10-02T10:00:02.553Z,99.99
2022-10-02T10:01:02.807Z,99.99
2022-10-02T10:02:02.937Z,99.99
2022-10-02T10:03:03.115Z,99.99
2022-10-02T10:04:03.377Z,99.99
2022-10-02T10:05:06.370Z,99.99
2022-10-02T10:06:03.677Z,99.99
2022-10-02T10:07:03.848Z,99.99
2022-10-02T10:08:04.046Z,99.99
2022-10-02T10:09:04.303Z,99.99
2022-10-02T10:10:04.457Z,99.99
2022-10-02T10:11:04.612Z,99.99
2022-10-02T10:12:04.830Z,99.99
2022-10-02T10:13:04.995Z,99.99
2022-10-02T10:14:05.204Z,99.99
2022-10-02T10:15:09.007Z,99.99
2022-10-02T10:16:05.676Z,99.99
2022-10-02T10:17:05.820Z,99.99
2022-10-02T10:18:05.972Z,99.99
2022-10-02T10:19:06.382Z,99.99
2022-10-02T10:20:06.414Z,99.99
2022-10-02T10:21:06.635Z,99.99
2022-10-02T10:22:06.814Z,99.89
2022-10-02T10:23:07.015Z,99.08
2022-10-02T10:24:07.257Z,98.57
2022-10-02T10:25:07.410Z,98.41
2022-10-02T10:26:07.608Z,97.96
2022-10-02T10:27:08.339Z,97.34
2022-10-02T10:28:08.048Z,96.84
2022-10-02T10:29:08.172Z,95.22
2022-10-02T10:30:08.351Z,95.73
2022-10-02T10:31:08.573Z,96.09
2022-10-02T10:32:08.759Z,96.60
2022-10-02T10:33:08.953Z,95.07
2022-10-02T10:34:09.157Z,96.30
2022-10-02T10:35:09.337Z,94.10
2022-10-02T10:36:09.523Z,93.19
2022-10-02T10:37:09.709Z,93.45
2022-10-02T10:38:09.889Z,94.42
2022-10-02T10:39:10.090Z,94.12
2022-10-02T10:40:10.283Z,93.30
2022-10-02T10:41:10.471Z,92.54
2022-10-02T10:42:10.668Z,93.71
2022-10-02T10:43:14.307Z,93.30
2022-10-02T10:44:11.101Z,93.71
2022-10-02T10:45:11.253Z,92.76
2022-10-02T10:46:11.538Z,92.90
2022-10-02T10:47:11.645Z,92.35
2022-10-02T10:48:11.846Z,94.27
2022-10-02T10:49:12.055Z,93.62
2022-10-02T10:50:12.244Z,92.41
2022-10-02T10:51:12.429Z,91.19
2022-10-02T10:52:12.644Z,90.69
2022-10-02T10:53:12.843Z,91.39
2022-10-02T10:54:13.047Z,91.30
2022-10-02T10:55:13.241Z,91.05
2022-10-02T10:56:13.453Z,91.46
2022-10-02T10:57:13.741Z,91.60
2022-10-02T10:58:13.851Z,91.80
2022-10-02T10:59:14.157Z,91.51
2022-10-02T11:00:14.272Z,90.60
2022-10-02T11:01:14.555Z,91.00
2022-10-02T11:02:14.756Z,91.55
2022-10-02T11:03:14.835Z,89.87
2022-10-02T11:04:15.114Z,91.30
2022-10-02T11:05:15.233Z,93.32
2022-10-02T11:06:15.414Z,92.31
2022-10-02T11:07:15.636Z,91.60
2022-10-02T11:08:15.833Z,91.85
2022-10-02T11:09:16.028Z,92.14
2022-10-02T11:10:16.190Z,93.16
2022-10-02T11:11:16.385Z,92.14
2022-10-02T11:12:16.581Z,93.06
2022-10-02T11:13:16.795Z,93.37
2022-10-02T11:14:16.981Z,92.86
2022-10-02T11:15:17.178Z,92.45
2022-10-02T11:16:17.381Z,91.54
2022-10-02T11:17:17.503Z,92.76
2022-10-02T11:18:17.696Z,92.96
2022-10-02T11:19:21.335Z,91.38
2022-10-02T11:20:18.087Z,91.68
2022-10-02T11:21:18.287Z,92.64
2022-10-02T11:22:18.470Z,93.65
2022-10-02T11:23:18.687Z,93.55
2022-10-02T11:24:18.876Z,93.61
2022-10-02T11:25:19.029Z,92.44
2022-10-02T11:26:19.244Z,93.30
2022-10-02T11:27:19.418Z,92.96
2022-10-02T11:28:19.621Z,91.39
2022-10-02T11:29:19.823Z,90.24
2022-10-02T11:30:20.002Z,89.63
2022-10-02T11:31:20.246Z,89.23
2022-10-02T11:32:20.403Z,89.99
2022-10-02T11:33:20.588Z,88.98
2022-10-02T11:34:20.803Z,90.41
2022-10-02T11:35:20.993Z,87.02
2022-10-02T11:36:21.179Z,87.22
2022-10-02T11:37:21.399Z,86.15
2022-10-02T11:38:21.593Z,85.74
2022-10-02T11:39:21.797Z,86.25
2022-10-02T11:40:21.963Z,87.91
2022-10-02T11:41:22.167Z,87.14
2022-10-02T11:42:22.365Z,87.59
2022-10-02T11:43:22.555Z,89.01
2022-10-02T11:44:22.770Z,87.99
2022-10-02T11:45:22.964Z,87.48
2022-10-02T11:46:23.172Z,86.13
2022-10-02T11:47:23.358Z,86.59
2022-10-02T11:48:23.542Z,86.94
2022-10-02T11:49:23.748Z,86.49
2022-10-02T11:50:23.921Z,86.85
2022-10-02T11:51:24.147Z,85.84
2022-10-02T11:52:24.359Z,85.64
2022-10-02T11:53:24.598Z,85.70
2022-10-02T11:54:24.822Z,84.02
2022-10-02T11:55:24.987Z,81.69
2022-10-02T11:56:25.164Z,82.26
2022-10-02T11:57:25.377Z,83.37
2022-10-02T11:58:25.531Z,82.30
2022-10-02T11:59:25.743Z,83.01
2022-10-02T12:00:25.935Z,84.28
2022-10-02T12:01:26.139Z,82.83
2022-10-02T12:02:26.449Z,81.39
2022-10-02T12:03:26.602Z,82.67
2022-10-02T12:04:26.783Z,82.06
2022-10-02T12:05:26.927Z,82.42
2022-10-02T12:06:27.121Z,82.60
2022-10-02T12:07:27.318Z,83.27
2022-10-02T12:08:27.503Z,83.13
2022-10-02T12:09:27.731Z,82.06
2022-10-02T12:10:27.893Z,83.27
2022-10-02T12:11:28.083Z,83.98
2022-10-02T12:12:28.259Z,84.19
2022-10-02T12:13:28.455Z,85.10
2022-10-02T12:14:28.710Z,84.22
2022-10-02T12:15:28.932Z,84.63
2022-10-02T12:16:29.131Z,83.51
2022-10-02T12:17:29.266Z,83.92
2022-10-02T12:18:29.461Z,84.42
2022-10-02T12:19:29.670Z,85.07
2022-10-02T12:20:29.833Z,85.84
2022-10-02T12:21:30.002Z,84.73
2022-10-02T12:22:30.194Z,83.15
2022-10-02T12:23:30.385Z,84.27
2022-10-02T12:24:30.621Z,84.97
2022-10-02T12:25:30.752Z,84.06
2022-10-02T12:26:30.972Z,84.97
2022-10-02T12:27:31.154Z,86.02
2022-10-02T12:28:31.404Z,84.77
2022-10-02T12:29:31.625Z,84.67
2022-10-02T12:30:31.779Z,84.79
2022-10-02T12:31:32.056Z,84.55
2022-10-02T12:32:32.155Z,83.54
2022-10-02T12:33:32.348Z,83.07
2022-10-02T12:34:32.563Z,83.33
2022-10-02T12:35:32.720Z,82.06
2022-10-02T12:36:32.929Z,81.62
2022-10-02T12:37:33.123Z,80.30
2022-10-02T12:38:33.316Z,81.85
2022-10-02T12:39:33.515Z,83.07
2022-10-02T12:40:33.707Z,82.50
2022-10-02T12:41:34.597Z,83.31
2022-10-02T12:42:34.102Z,84.04
2022-10-02T12:43:34.303Z,84.14
2022-10-02T12:44:34.504Z,82.56
2022-10-02T12:45:34.761Z,83.03
2022-10-02T12:46:34.901Z,82.81
2022-10-02T12:47:35.109Z,83.82
2022-10-02T12:48:35.300Z,83.88
2022-10-02T12:49:35.517Z,83.27
2022-10-02T12:50:35.697Z,83.92
2022-10-02T12:51:36.292Z,84.42
2022-10-02T12:52:36.101Z,84.08
2022-10-02T12:53:36.290Z,85.05
2022-10-02T12:54:36.479Z,83.64
2022-10-02T12:55:36.692Z,83.98